Savage Eagle — CFG7264 — position and weather

sailwx.info

Track history (hours):
 
Tides and Currents Weather Stations Pressure Air Temp Water Temp Dewpoint Dewpoint Depression Visibility Wind Speed Wind Dir Waves Ship Positions

Savage Eagle

Last reported at 2018-May-10 07:34 UTC. Time now 2018-May-21 22:31 UTC.
Position N 54°20' W 131°13'.
Warning: this ship's position is 11 days out of date.

Length 19 m.

Type: Fishing. MMSI: 316002978.

Date/timePositionNaut miles runAvg speedWind from/ knotsBaromVisibWave heightAir tempDewpointWater temp
2018-May-10 07:34N 54°20' W 131°13'1 7.8
2018-May-10 07:27N 54°20' W 131°12'4 8.3
2018-May-10 06:58N 54°19' W 131°05'4 8.2
2018-May-10 06:30N 54°19' W 130°58'4 7.5
2018-May-10 06:00N 54°19' W 130°52'4 7.5
2018-May-10 05:30N 54°17' W 130°46'4 7.9
2018-May-10 05:00N 54°16' W 130°40'4 8.0
2018-May-10 04:30N 54°15' W 130°33'4 8.7
2018-May-10 04:00N 54°14' W 130°26'3 6.4
2018-May-10 03:30N 54°15' W 130°21'2 3.7
2018-May-10 02:54N 54°17' W 130°21'0 0.0
2018-May-10 02:30N 54°17' W 130°21'0 0.0
2018-May-10 02:00N 54°17' W 130°21'0 0.0
2018-May-10 01:30N 54°17' W 130°21'0 0.0
2018-May-10 01:00N 54°17' W 130°21'0 0.0
2018-May-10 00:30N 54°17' W 130°21'0 0.0
2018-May-10 00:00N 54°17' W 130°21'0 0.0
2018-May-09 23:27N 54°17' W 130°21'0 0.0
2018-May-09 22:48N 54°17' W 130°21'0 0.0
2018-May-09 22:30N 54°17' W 130°21'0 0.0
2018-May-09 22:00N 54°17' W 130°21'0 0.0
2018-May-09 21:09N 54°17' W 130°21'0 0.0
2018-May-09 20:48N 54°17' W 130°21'0 0.0
2018-May-09 20:27N 54°17' W 130°21'0 0.0
2018-May-09 20:00N 54°17' W 130°21'0 0.0
2018-May-09 19:30N 54°17' W 130°21'0 0.0
2018-May-09 19:00N 54°17' W 130°21'0 0.0
2018-May-09 18:30N 54°17' W 130°21'0 0.0
2018-May-09 18:00N 54°17' W 130°21'0 0.0
2018-May-09 17:30N 54°17' W 130°21'0 0.0
2018-May-09 17:00N 54°17' W 130°21'0 0.0
2018-May-09 16:30N 54°17' W 130°21'0 0.0
2018-May-09 16:00N 54°17' W 130°21'0 0.0
2018-May-09 15:27N 54°17' W 130°21'0 0.0
2018-May-09 15:00N 54°17' W 130°21'0 0.0
2018-May-09 14:30N 54°17' W 130°21'0 0.0
2018-May-09 14:00N 54°17' W 130°21'0 0.0
2018-May-09 13:30N 54°17' W 130°21'0 0.0
2018-May-09 13:00N 54°17' W 130°21'0 0.0
2018-May-09 12:30N 54°17' W 130°21'0 0.0
2018-May-09 12:00N 54°17' W 130°21'0 0.0
2018-May-09 11:30N 54°17' W 130°21'0 0.0
2018-May-09 11:00N 54°17' W 130°21'0 0.0
2018-May-09 10:27N 54°17' W 130°21'0 0.0
2018-May-09 09:48N 54°17' W 130°21'0 0.0
2018-May-09 09:27N 54°17' W 130°21'0 0.0
2018-May-09 09:00N 54°17' W 130°21'0 0.0
2018-May-09 08:30N 54°17' W 130°21'0 0.0
2018-May-09 07:54N 54°17' W 130°21'0 0.0
2018-May-09 07:30N 54°17' W 130°21'0 0.0
2018-May-09 07:00N 54°17' W 130°21'0 0.0
2018-May-09 06:30N 54°17' W 130°21'0 0.0
2018-May-09 06:00N 54°17' W 130°21'0 0.0
2018-May-09 05:30N 54°17' W 130°21'0 0.0
2018-May-09 05:00N 54°17' W 130°21'0 0.0
2018-May-09 04:27N 54°17' W 130°21'0 0.0
2018-May-09 04:00N 54°17' W 130°21'0 0.0
2018-May-09 03:30N 54°17' W 130°21'0 0.0
2018-May-09 02:21N 54°17' W 130°21'0 0.0
2018-May-09 02:00N 54°17' W 130°21'0 0.0
2018-May-09 01:30N 54°17' W 130°21'0 0.0
2018-May-09 01:00N 54°17' W 130°21'0 0.0
2018-May-09 00:30N 54°17' W 130°21'0 0.0
2018-May-09 00:00N 54°17' W 130°21'0 0.0
2018-May-08 23:24N 54°17' W 130°21'0 0.0
2018-May-08 23:00N 54°17' W 130°21'0 0.0
2018-May-08 22:30N 54°17' W 130°21'0 0.0
2018-May-08 21:54N 54°17' W 130°21'0 0.0
2018-May-08 21:30N 54°17' W 130°21'0 0.0
2018-May-08 21:00N 54°17' W 130°21'0 0.0
2018-May-08 20:24N 54°17' W 130°21'0 0.0
2018-May-08 20:00N 54°17' W 130°21'0 0.0
2018-May-08 19:30N 54°17' W 130°21'0 0.0
2018-May-08 19:00N 54°17' W 130°21'0 0.0
2018-May-08 18:30N 54°17' W 130°21'0 0.0
2018-May-08 17:57N 54°17' W 130°21'0 0.0
2018-May-08 17:30N 54°17' W 130°21'0 0.0
2018-May-08 17:00N 54°17' W 130°21'2 4.7
2018-May-08 16:29N 54°19' W 130°19'0 0.4
2018-May-08 16:00N 54°19' W 130°19'0 0.0
2018-May-08 15:30N 54°19' W 130°19'0 0.0
2018-May-08 15:00N 54°19' W 130°19'0 0.0
2018-May-08 14:30N 54°19' W 130°19'0 0.0
2018-May-08 13:45N 54°19' W 130°19'0 0.0
2018-May-08 13:27N 54°19' W 130°19'0 0.0
2018-May-08 12:57N 54°19' W 130°19'0 0.0
2018-May-08 12:27N 54°19' W 130°19'0 0.0
2018-May-08 12:00N 54°19' W 130°19'0 0.0
2018-May-08 11:30N 54°19' W 130°19'0 0.0
2018-May-08 10:57N 54°19' W 130°19'0 0.0
2018-May-08 10:30N 54°19' W 130°19'0 0.0
2018-May-08 10:00N 54°19' W 130°19'0 0.0
2018-May-08 09:30N 54°19' W 130°19'0 0.0
2018-May-08 09:00N 54°19' W 130°19'0 0.0
2018-May-08 08:30N 54°19' W 130°19'0 0.0
2018-May-08 07:58N 54°19' W 130°19'0 0.0
2018-May-08 07:27N 54°19' W 130°19'0 0.0
2018-May-08 06:57N 54°19' W 130°19'0 0.0
2018-May-08 06:30N 54°19' W 130°19'0 0.0
2018-May-08 05:57N 54°19' W 130°19'0 0.0
2018-May-08 05:27N 54°19' W 130°19'0 0.0
2018-May-08 05:00N 54°19' W 130°19'0 0.0
2018-May-08 04:27N 54°19' W 130°19'0 0.0
2018-May-08 03:57N 54°19' W 130°19'0 0.0
2018-May-08 03:03N 54°19' W 130°19'0 0.0
2018-May-08 02:57N 54°19' W 130°19'0 0.0
2018-May-08 02:30N 54°19' W 130°19'0 0.0
2018-May-08 01:57N 54°19' W 130°19'0 0.0
2018-May-08 01:27N 54°19' W 130°19'0 0.0
2018-May-08 01:00N 54°19' W 130°19'0 0.0
2018-May-08 00:30N 54°19' W 130°19'0 0.0
2018-May-08 00:00N 54°19' W 130°19'0 0.0
2018-May-07 23:21N 54°19' W 130°19'0 0.0
2018-May-07 23:00N 54°19' W 130°19'0 0.0
2018-May-07 22:30N 54°19' W 130°19'0 0.0
2018-May-07 22:00N 54°19' W 130°19'1 2.0
2018-May-07 21:29N 54°20' W 130°17'0 0.8
2018-May-07 21:00N 54°20' W 130°18'1 2.2
2018-May-07 20:30N 54°19' W 130°19'0 0.3
2018-May-07 19:26N 54°19' W 130°19'0 0.0
2018-May-07 18:56N 54°19' W 130°19'0 0.0
2018-May-07 18:26N 54°19' W 130°19'0 0.0
2018-May-07 17:56N 54°19' W 130°19'0 0.0
2018-May-07 17:26N 54°19' W 130°19'0 0.0
2018-May-07 16:44N 54°19' W 130°19'0 0.0
2018-May-07 16:26N 54°19' W 130°19'0 0.0
2018-May-07 15:56N 54°19' W 130°19'0 0.0
2018-May-07 15:26N 54°19' W 130°19'0 0.0
2018-May-07 14:50N 54°19' W 130°19'0 0.0
2018-May-07 14:26N 54°19' W 130°19'0 0.0
2018-May-07 13:59N 54°19' W 130°19'0 0.0
2018-May-07 13:26N 54°19' W 130°19'0 0.0
2018-May-07 12:59N 54°19' W 130°19'0 0.0
2018-May-07 12:20N 54°19' W 130°19'0 0.0
2018-May-07 11:56N 54°19' W 130°19'0 0.0
2018-May-07 11:26N 54°19' W 130°19'0 0.0
2018-May-07 10:56N 54°19' W 130°19'0 0.0
2018-May-07 10:26N 54°19' W 130°19'0 0.0
2018-May-07 09:44N 54°19' W 130°19'0 0.0
2018-May-07 09:26N 54°19' W 130°19'0 0.0
2018-May-07 08:56N 54°19' W 130°19'0 0.0
2018-May-07 08:26N 54°19' W 130°19'0 0.0
2018-May-07 07:56N 54°19' W 130°19'0 0.0
2018-May-07 07:20N 54°19' W 130°19'0 0.0
2018-May-07 07:00N 54°19' W 130°19'0 0.0
2018-May-07 06:26N 54°19' W 130°19'0 0.0
2018-May-07 05:56N 54°19' W 130°19'0 0.0
2018-May-07 05:29N 54°19' W 130°19'0 0.0
2018-May-07 04:50N 54°19' W 130°19'0 0.0
2018-May-07 04:26N 54°19' W 130°19'0 0.0
2018-May-07 03:56N 54°19' W 130°19'0 0.0
2018-May-07 03:26N 54°19' W 130°19'0 0.0
2018-May-07 02:56N 54°19' W 130°19'0 0.0
2018-May-07 02:26N 54°19' W 130°19'0 0.0
2018-May-07 01:56N 54°19' W 130°19'0 0.0
2018-May-07 01:29N 54°19' W 130°19'0 0.0
2018-May-07 00:56N 54°19' W 130°19'0 0.0
2018-May-07 00:26N 54°19' W 130°19'0 0.0
2018-May-06 23:56N 54°19' W 130°19'0 0.0
2018-May-06 23:26N 54°19' W 130°19'0 0.0
2018-May-06 22:56N 54°19' W 130°19'0 0.0
2018-May-06 22:20N 54°19' W 130°19'0 0.0
2018-May-06 21:56N 54°19' W 130°19'0 0.0
2018-May-06 21:26N 54°19' W 130°19'0 0.0
2018-May-06 20:56N 54°19' W 130°19'0 0.0
2018-May-06 20:29N 54°19' W 130°19'0 0.0
2018-May-06 19:56N 54°19' W 130°19'0 0.0
2018-May-06 19:20N 54°19' W 130°19'0 0.0
2018-May-06 18:56N 54°19' W 130°19'0 0.0
2018-May-06 18:26N 54°19' W 130°19'0 0.0
2018-May-06 17:32N 54°19' W 130°19'0 0.0
2018-May-06 17:29N 54°19' W 130°19'0 0.0
2018-May-06 16:53N 54°19' W 130°19'0 0.0
2018-May-06 16:26N 54°19' W 130°19'0 0.0
2018-May-06 15:56N 54°19' W 130°19'0 0.0
2018-May-06 15:26N 54°19' W 130°19'0 0.0
2018-May-06 14:29N 54°19' W 130°19'0 0.0
2018-May-06 13:53N 54°19' W 130°19'0 0.0
2018-May-06 13:29N 54°19' W 130°19'0 0.0
2018-May-06 12:47N 54°19' W 130°19'0 0.0
2018-May-06 12:29N 54°19' W 130°19'0 0.0
2018-May-06 09:38N 54°19' W 130°19'0 0.0
2018-May-06 09:26N 54°19' W 130°19'0 0.0
2018-May-06 08:56N 54°19' W 130°19'0 0.0
2018-May-06 08:26N 54°19' W 130°19'0 0.0
2018-May-06 04:20N 54°19' W 130°19'0 0.0
2018-May-06 00:47N 54°19' W 130°19'0 0.0
2018-May-06 00:29N 54°19' W 130°19'0 0.0
2018-May-05 23:44N 54°19' W 130°19'0 0.0
2018-May-05 23:25N 54°19' W 130°19'0 0.1
2018-May-05 22:56N 54°19' W 130°19'0 0.0
2018-May-05 22:29N 54°19' W 130°19'0 0.0
2018-May-05 21:59N 54°19' W 130°19'0 0.1
2018-May-05 21:29N 54°19' W 130°19'0 0.1
2018-May-05 20:59N 54°19' W 130°19'0 0.0
2018-May-05 20:29N 54°19' W 130°19'0 0.0
2018-May-05 19:59N 54°19' W 130°19'0 0.0
2018-May-05 19:29N 54°19' W 130°19'0 0.0
2018-May-05 18:59N 54°19' W 130°19'0 0.0
2018-May-05 18:29N 54°19' W 130°19'0 0.0
2018-May-05 17:59N 54°19' W 130°19'0 0.6
2018-May-05 17:28N 54°20' W 130°18'1 1.8
2018-May-05 17:00N 54°20' W 130°17'0 0.1
2018-May-05 16:30N 54°20' W 130°17'0 0.0
2018-May-05 15:39N 54°20' W 130°17'0 0.0
2018-May-05 15:18N 54°20' W 130°17'0 0.0
2018-May-05 15:00N 54°20' W 130°17'0 0.0
2018-May-05 14:30N 54°20' W 130°17'0 0.0
2018-May-05 13:51N 54°20' W 130°17'0 0.0
2018-May-05 13:30N 54°20' W 130°17'0 0.0
2018-May-05 13:00N 54°20' W 130°17'0 0.0
2018-May-05 12:06N 54°20' W 130°17'0 0.0
2018-May-05 12:00N 54°20' W 130°17'0 0.0
2018-May-05 11:30N 54°20' W 130°17'2 3.4
2018-May-05 11:00N 54°19' W 130°20'4 8.0
2018-May-05 10:31N 54°15' W 130°21'3 5.6
2018-May-05 10:00N 54°13' W 130°25'4 7.2
2018-May-05 09:30N 54°15' W 130°30'3 6.8
2018-May-05 09:00N 54°16' W 130°36'4 7.5
2018-May-05 08:30N 54°17' W 130°42'4 8.0
2018-May-05 08:00N 54°18' W 130°48'4 8.3
2018-May-05 07:30N 54°19' W 130°55'4 7.8
2018-May-05 07:00N 54°19' W 131°02'4 7.1
2018-May-05 06:29N 54°20' W 131°08'4 7.9
2018-May-05 06:00N 54°20' W 131°15'  
2018-May-02 07:21N 54°19' W 131°08'2 6.0
2018-May-02 06:58N 54°19' W 131°04'3 6.1
2018-May-02 06:31N 54°19' W 130°59'4 7.2
2018-May-02 05:59N 54°19' W 130°53'4 7.8
2018-May-02 05:30N 54°18' W 130°47'4 7.7
2018-May-02 05:00N 54°16' W 130°41'4 7.9
2018-May-02 04:30N 54°15' W 130°34'4 7.9
2018-May-02 04:01N 54°14' W 130°28'4 7.2
2018-May-02 03:30N 54°14' W 130°22'3 0.6
2018-May-01 21:49N 54°17' W 130°21'0 0.0
2018-May-01 21:28N 54°17' W 130°21'0 0.0
2018-May-01 18:55N 54°17' W 130°21'3 6.2
2018-May-01 18:30N 54°20' W 130°19'1 2.5
2018-May-01 18:01N 54°20' W 130°17'2 3.5
2018-May-01 17:30N 54°19' W 130°20'2 3.2
2018-May-01 16:52N 54°17' W 130°21'0 0.0
2018-May-01 16:28N 54°17' W 130°21'0 0.0
2018-May-01 15:55N 54°17' W 130°21'0 0.0
2018-May-01 15:28N 54°17' W 130°21'0 0.0
2018-May-01 14:58N 54°17' W 130°21'0 0.0
2018-May-01 14:28N 54°17' W 130°21'0 0.0
2018-May-01 13:58N 54°17' W 130°21'0 0.0
2018-May-01 13:28N 54°17' W 130°21'0 0.0
2018-May-01 12:46N 54°17' W 130°21'0 0.0
2018-May-01 12:28N 54°17' W 130°21'0 0.0
2018-May-01 11:55N 54°17' W 130°21'0 0.0
2018-May-01 11:25N 54°17' W 130°21'0 0.0
2018-May-01 10:55N 54°17' W 130°21'0 0.0
2018-May-01 10:25N 54°17' W 130°21'0 0.0
2018-May-01 09:55N 54°17' W 130°21'0 0.0
2018-May-01 09:25N 54°17' W 130°21'0 0.0
2018-May-01 08:55N 54°17' W 130°21'0 0.0
2018-May-01 08:25N 54°17' W 130°21'0 0.0
2018-May-01 07:49N 54°17' W 130°21'0 0.0
2018-May-01 07:25N 54°17' W 130°21'0 0.0
2018-May-01 06:55N 54°17' W 130°21'0 0.0
2018-May-01 06:25N 54°17' W 130°21'0 0.0
2018-May-01 05:49N 54°17' W 130°21'0 0.0
2018-May-01 05:25N 54°17' W 130°21'0 0.0
2018-May-01 04:58N 54°17' W 130°21'0 0.0
2018-May-01 04:25N 54°17' W 130°21'0 0.0
2018-May-01 03:55N 54°17' W 130°21'0 0.0
2018-May-01 03:28N 54°17' W 130°21'0 0.0
2018-May-01 02:58N 54°17' W 130°21'0 0.0
2018-May-01 02:25N 54°17' W 130°21'0 0.0
2018-May-01 01:55N 54°17' W 130°21'0 0.0
2018-May-01 01:25N 54°17' W 130°21'0 0.0
2018-May-01 00:55N 54°17' W 130°21'0 0.0
2018-May-01 00:25N 54°17' W 130°21'0 0.0
2018-Apr-30 23:55N 54°17' W 130°21'0 0.0
2018-Apr-30 23:25N 54°17' W 130°21'0 0.0
2018-Apr-30 22:55N 54°17' W 130°21'0 0.0
2018-Apr-30 22:25N 54°17' W 130°21'0 0.0
2018-Apr-30 21:55N 54°17' W 130°21'0 0.0
2018-Apr-30 21:28N 54°17' W 130°21'0 0.0
2018-Apr-30 20:55N 54°17' W 130°21'0 0.0
2018-Apr-30 20:13N 54°17' W 130°21'0 0.0
2018-Apr-30 19:55N 54°17' W 130°21'0 0.0
2018-Apr-30 19:25N 54°17' W 130°21'0 0.0
2018-Apr-30 18:55N 54°17' W 130°21'0 0.0
2018-Apr-30 18:25N 54°17' W 130°21'0 0.0
2018-Apr-30 17:55N 54°17' W 130°21'0 0.0
2018-Apr-30 17:25N 54°17' W 130°21'0 0.0
2018-Apr-30 16:55N 54°17' W 130°21'0 0.0
2018-Apr-30 16:25N 54°17' W 130°21'0 0.0
2018-Apr-30 15:55N 54°17' W 130°21'0 0.0
2018-Apr-30 15:28N 54°17' W 130°21'0 0.0
2018-Apr-30 14:55N 54°17' W 130°21'0 0.0
2018-Apr-30 14:25N 54°17' W 130°21'0 0.0
2018-Apr-30 13:58N 54°17' W 130°21'0 0.0
2018-Apr-30 13:25N 54°17' W 130°21'0 0.0
2018-Apr-30 12:55N 54°17' W 130°21'0 0.0
2018-Apr-30 12:25N 54°17' W 130°21'0 0.0
2018-Apr-30 11:55N 54°17' W 130°21'0 0.0
2018-Apr-30 11:25N 54°17' W 130°21'0 0.0
2018-Apr-30 10:55N 54°17' W 130°21'0 0.0
2018-Apr-30 10:25N 54°17' W 130°21'0 0.0
2018-Apr-30 09:55N 54°17' W 130°21'0 0.0
2018-Apr-30 09:25N 54°17' W 130°21'0 0.0
2018-Apr-30 08:55N 54°17' W 130°21'0 0.0
2018-Apr-30 08:25N 54°17' W 130°21'0 0.0
2018-Apr-30 07:55N 54°17' W 130°21'  
Track history (hours):
 
Tides and Currents Weather Stations Pressure Air Temp Water Temp Dewpoint Dewpoint Depression Visibility Wind Speed Wind Dir Waves Ship Positions

Savage Eagle

Last reported at 2018-May-10 07:34 UTC. Time now 2018-May-21 22:31 UTC.
Position N 54°20' W 131°13'.
Warning: this ship's position is 11 days out of date.

Length 19 m.

Type: Fishing. MMSI: 316002978.

Date/timePositionNaut miles runAvg speedWind from/ knotsBaromVisibWave heightAir tempDewpointWater temp
2018-May-10 07:34N 54°20' W 131°13'1 7.8
2018-May-10 07:27N 54°20' W 131°12'4 8.3
2018-May-10 06:58N 54°19' W 131°05'4 8.2
2018-May-10 06:30N 54°19' W 130°58'4 7.5
2018-May-10 06:00N 54°19' W 130°52'4 7.5
2018-May-10 05:30N 54°17' W 130°46'4 7.9
2018-May-10 05:00N 54°16' W 130°40'4 8.0
2018-May-10 04:30N 54°15' W 130°33'4 8.7
2018-May-10 04:00N 54°14' W 130°26'3 6.4
2018-May-10 03:30N 54°15' W 130°21'2 3.7
2018-May-10 02:54N 54°17' W 130°21'0 0.0
2018-May-10 02:30N 54°17' W 130°21'0 0.0
2018-May-10 02:00N 54°17' W 130°21'0 0.0
2018-May-10 01:30N 54°17' W 130°21'0 0.0
2018-May-10 01:00N 54°17' W 130°21'0 0.0
2018-May-10 00:30N 54°17' W 130°21'0 0.0
2018-May-10 00:00N 54°17' W 130°21'0 0.0
2018-May-09 23:27N 54°17' W 130°21'0 0.0
2018-May-09 22:48N 54°17' W 130°21'0 0.0
2018-May-09 22:30N 54°17' W 130°21'0 0.0
2018-May-09 22:00N 54°17' W 130°21'0 0.0
2018-May-09 21:09N 54°17' W 130°21'0 0.0
2018-May-09 20:48N 54°17' W 130°21'0 0.0
2018-May-09 20:27N 54°17' W 130°21'0 0.0
2018-May-09 20:00N 54°17' W 130°21'0 0.0
2018-May-09 19:30N 54°17' W 130°21'0 0.0
2018-May-09 19:00N 54°17' W 130°21'0 0.0
2018-May-09 18:30N 54°17' W 130°21'0 0.0
2018-May-09 18:00N 54°17' W 130°21'0 0.0
2018-May-09 17:30N 54°17' W 130°21'0 0.0
2018-May-09 17:00N 54°17' W 130°21'0 0.0
2018-May-09 16:30N 54°17' W 130°21'0 0.0
2018-May-09 16:00N 54°17' W 130°21'0 0.0
2018-May-09 15:27N 54°17' W 130°21'0 0.0
2018-May-09 15:00N 54°17' W 130°21'0 0.0
2018-May-09 14:30N 54°17' W 130°21'0 0.0
2018-May-09 14:00N 54°17' W 130°21'0 0.0
2018-May-09 13:30N 54°17' W 130°21'0 0.0
2018-May-09 13:00N 54°17' W 130°21'0 0.0
2018-May-09 12:30N 54°17' W 130°21'0 0.0
2018-May-09 12:00N 54°17' W 130°21'0 0.0
2018-May-09 11:30N 54°17' W 130°21'0 0.0
2018-May-09 11:00N 54°17' W 130°21'0 0.0
2018-May-09 10:27N 54°17' W 130°21'0 0.0
2018-May-09 09:48N 54°17' W 130°21'0 0.0
2018-May-09 09:27N 54°17' W 130°21'0 0.0
2018-May-09 09:00N 54°17' W 130°21'0 0.0
2018-May-09 08:30N 54°17' W 130°21'0 0.0
2018-May-09 07:54N 54°17' W 130°21'0 0.0
2018-May-09 07:30N 54°17' W 130°21'0 0.0
2018-May-09 07:00N 54°17' W 130°21'0 0.0
2018-May-09 06:30N 54°17' W 130°21'0 0.0
2018-May-09 06:00N 54°17' W 130°21'0 0.0
2018-May-09 05:30N 54°17' W 130°21'0 0.0
2018-May-09 05:00N 54°17' W 130°21'0 0.0
2018-May-09 04:27N 54°17' W 130°21'0 0.0
2018-May-09 04:00N 54°17' W 130°21'0 0.0
2018-May-09 03:30N 54°17' W 130°21'0 0.0
2018-May-09 02:21N 54°17' W 130°21'0 0.0
2018-May-09 02:00N 54°17' W 130°21'0 0.0
2018-May-09 01:30N 54°17' W 130°21'0 0.0
2018-May-09 01:00N 54°17' W 130°21'0 0.0
2018-May-09 00:30N 54°17' W 130°21'0 0.0
2018-May-09 00:00N 54°17' W 130°21'0 0.0
2018-May-08 23:24N 54°17' W 130°21'0 0.0
2018-May-08 23:00N 54°17' W 130°21'0 0.0
2018-May-08 22:30N 54°17' W 130°21'0 0.0
2018-May-08 21:54N 54°17' W 130°21'0 0.0
2018-May-08 21:30N 54°17' W 130°21'0 0.0
2018-May-08 21:00N 54°17' W 130°21'0 0.0
2018-May-08 20:24N 54°17' W 130°21'0 0.0
2018-May-08 20:00N 54°17' W 130°21'0 0.0
2018-May-08 19:30N 54°17' W 130°21'0 0.0
2018-May-08 19:00N 54°17' W 130°21'0 0.0
2018-May-08 18:30N 54°17' W 130°21'0 0.0
2018-May-08 17:57N 54°17' W 130°21'0 0.0
2018-May-08 17:30N 54°17' W 130°21'0 0.0
2018-May-08 17:00N 54°17' W 130°21'2 4.7
2018-May-08 16:29N 54°19' W 130°19'0 0.4
2018-May-08 16:00N 54°19' W 130°19'0 0.0
2018-May-08 15:30N 54°19' W 130°19'0 0.0
2018-May-08 15:00N 54°19' W 130°19'0 0.0
2018-May-08 14:30N 54°19' W 130°19'0 0.0
2018-May-08 13:45N 54°19' W 130°19'0 0.0
2018-May-08 13:27N 54°19' W 130°19'0 0.0
2018-May-08 12:57N 54°19' W 130°19'0 0.0
2018-May-08 12:27N 54°19' W 130°19'0 0.0
2018-May-08 12:00N 54°19' W 130°19'0 0.0
2018-May-08 11:30N 54°19' W 130°19'0 0.0
2018-May-08 10:57N 54°19' W 130°19'0 0.0
2018-May-08 10:30N 54°19' W 130°19'0 0.0
2018-May-08 10:00N 54°19' W 130°19'0 0.0
2018-May-08 09:30N 54°19' W 130°19'0 0.0
2018-May-08 09:00N 54°19' W 130°19'0 0.0
2018-May-08 08:30N 54°19' W 130°19'0 0.0
2018-May-08 07:58N 54°19' W 130°19'0 0.0
2018-May-08 07:27N 54°19' W 130°19'0 0.0
2018-May-08 06:57N 54°19' W 130°19'0 0.0
2018-May-08 06:30N 54°19' W 130°19'0 0.0
2018-May-08 05:57N 54°19' W 130°19'0 0.0
2018-May-08 05:27N 54°19' W 130°19'0 0.0
2018-May-08 05:00N 54°19' W 130°19'0 0.0
2018-May-08 04:27N 54°19' W 130°19'0 0.0
2018-May-08 03:57N 54°19' W 130°19'0 0.0
2018-May-08 03:03N 54°19' W 130°19'0 0.0
2018-May-08 02:57N 54°19' W 130°19'0 0.0
2018-May-08 02:30N 54°19' W 130°19'0 0.0
2018-May-08 01:57N 54°19' W 130°19'0 0.0
2018-May-08 01:27N 54°19' W 130°19'0 0.0
2018-May-08 01:00N 54°19' W 130°19'0 0.0
2018-May-08 00:30N 54°19' W 130°19'0 0.0
2018-May-08 00:00N 54°19' W 130°19'0 0.0
2018-May-07 23:21N 54°19' W 130°19'0 0.0
2018-May-07 23:00N 54°19' W 130°19'0 0.0
2018-May-07 22:30N 54°19' W 130°19'0 0.0
2018-May-07 22:00N 54°19' W 130°19'1 2.0
2018-May-07 21:29N 54°20' W 130°17'0 0.8
2018-May-07 21:00N 54°20' W 130°18'1 2.2
2018-May-07 20:30N 54°19' W 130°19'0 0.3
2018-May-07 19:26N 54°19' W 130°19'0 0.0
2018-May-07 18:56N 54°19' W 130°19'0 0.0
2018-May-07 18:26N 54°19' W 130°19'0 0.0
2018-May-07 17:56N 54°19' W 130°19'0 0.0
2018-May-07 17:26N 54°19' W 130°19'0 0.0
2018-May-07 16:44N 54°19' W 130°19'0 0.0
2018-May-07 16:26N 54°19' W 130°19'0 0.0
2018-May-07 15:56N 54°19' W 130°19'0 0.0
2018-May-07 15:26N 54°19' W 130°19'0 0.0
2018-May-07 14:50N 54°19' W 130°19'0 0.0
2018-May-07 14:26N 54°19' W 130°19'0 0.0
2018-May-07 13:59N 54°19' W 130°19'0 0.0
2018-May-07 13:26N 54°19' W 130°19'0 0.0
2018-May-07 12:59N 54°19' W 130°19'0 0.0
2018-May-07 12:20N 54°19' W 130°19'0 0.0
2018-May-07 11:56N 54°19' W 130°19'0 0.0
2018-May-07 11:26N 54°19' W 130°19'0 0.0
2018-May-07 10:56N 54°19' W 130°19'0 0.0
2018-May-07 10:26N 54°19' W 130°19'0 0.0
2018-May-07 09:44N 54°19' W 130°19'0 0.0
2018-May-07 09:26N 54°19' W 130°19'0 0.0
2018-May-07 08:56N 54°19' W 130°19'0 0.0
2018-May-07 08:26N 54°19' W 130°19'0 0.0
2018-May-07 07:56N 54°19' W 130°19'0 0.0
2018-May-07 07:20N 54°19' W 130°19'0 0.0
2018-May-07 07:00N 54°19' W 130°19'0 0.0
2018-May-07 06:26N 54°19' W 130°19'0 0.0
2018-May-07 05:56N 54°19' W 130°19'0 0.0
2018-May-07 05:29N 54°19' W 130°19'0 0.0
2018-May-07 04:50N 54°19' W 130°19'0 0.0
2018-May-07 04:26N 54°19' W 130°19'0 0.0
2018-May-07 03:56N 54°19' W 130°19'0 0.0
2018-May-07 03:26N 54°19' W 130°19'0 0.0
2018-May-07 02:56N 54°19' W 130°19'0 0.0
2018-May-07 02:26N 54°19' W 130°19'0 0.0
2018-May-07 01:56N 54°19' W 130°19'0 0.0
2018-May-07 01:29N 54°19' W 130°19'0 0.0
2018-May-07 00:56N 54°19' W 130°19'0 0.0
2018-May-07 00:26N 54°19' W 130°19'0 0.0
2018-May-06 23:56N 54°19' W 130°19'0 0.0
2018-May-06 23:26N 54°19' W 130°19'0 0.0
2018-May-06 22:56N 54°19' W 130°19'0 0.0
2018-May-06 22:20N 54°19' W 130°19'0 0.0
2018-May-06 21:56N 54°19' W 130°19'0 0.0
2018-May-06 21:26N 54°19' W 130°19'0 0.0
2018-May-06 20:56N 54°19' W 130°19'0 0.0
2018-May-06 20:29N 54°19' W 130°19'0 0.0
2018-May-06 19:56N 54°19' W 130°19'0 0.0
2018-May-06 19:20N 54°19' W 130°19'0 0.0
2018-May-06 18:56N 54°19' W 130°19'0 0.0
2018-May-06 18:26N 54°19' W 130°19'0 0.0
2018-May-06 17:32N 54°19' W 130°19'0 0.0
2018-May-06 17:29N 54°19' W 130°19'0 0.0
2018-May-06 16:53N 54°19' W 130°19'0 0.0
2018-May-06 16:26N 54°19' W 130°19'0 0.0
2018-May-06 15:56N 54°19' W 130°19'0 0.0
2018-May-06 15:26N 54°19' W 130°19'0 0.0
2018-May-06 14:29N 54°19' W 130°19'0 0.0
2018-May-06 13:53N 54°19' W 130°19'0 0.0
2018-May-06 13:29N 54°19' W 130°19'0 0.0
2018-May-06 12:47N 54°19' W 130°19'0 0.0
2018-May-06 12:29N 54°19' W 130°19'0 0.0
2018-May-06 09:38N 54°19' W 130°19'0 0.0
2018-May-06 09:26N 54°19' W 130°19'0 0.0
2018-May-06 08:56N 54°19' W 130°19'0 0.0
2018-May-06 08:26N 54°19' W 130°19'0 0.0
2018-May-06 04:20N 54°19' W 130°19'0 0.0
2018-May-06 00:47N 54°19' W 130°19'0 0.0
2018-May-06 00:29N 54°19' W 130°19'0 0.0
2018-May-05 23:44N 54°19' W 130°19'0 0.0
2018-May-05 23:25N 54°19' W 130°19'0 0.1
2018-May-05 22:56N 54°19' W 130°19'0 0.0
2018-May-05 22:29N 54°19' W 130°19'0 0.0
2018-May-05 21:59N 54°19' W 130°19'0 0.1
2018-May-05 21:29N 54°19' W 130°19'0 0.1
2018-May-05 20:59N 54°19' W 130°19'0 0.0
2018-May-05 20:29N 54°19' W 130°19'0 0.0
2018-May-05 19:59N 54°19' W 130°19'0 0.0
2018-May-05 19:29N 54°19' W 130°19'0 0.0
2018-May-05 18:59N 54°19' W 130°19'0 0.0
2018-May-05 18:29N 54°19' W 130°19'0 0.0
2018-May-05 17:59N 54°19' W 130°19'0 0.6
2018-May-05 17:28N 54°20' W 130°18'1 1.8
2018-May-05 17:00N 54°20' W 130°17'0 0.1
2018-May-05 16:30N 54°20' W 130°17'0 0.0
2018-May-05 15:39N 54°20' W 130°17'0 0.0
2018-May-05 15:18N 54°20' W 130°17'0 0.0
2018-May-05 15:00N 54°20' W 130°17'0 0.0
2018-May-05 14:30N 54°20' W 130°17'0 0.0
2018-May-05 13:51N 54°20' W 130°17'0 0.0
2018-May-05 13:30N 54°20' W 130°17'0 0.0
2018-May-05 13:00N 54°20' W 130°17'0 0.0
2018-May-05 12:06N 54°20' W 130°17'0 0.0
2018-May-05 12:00N 54°20' W 130°17'0 0.0
2018-May-05 11:30N 54°20' W 130°17'2 3.4
2018-May-05 11:00N 54°19' W 130°20'4 8.0
2018-May-05 10:31N 54°15' W 130°21'3 5.6
2018-May-05 10:00N 54°13' W 130°25'4 7.2
2018-May-05 09:30N 54°15' W 130°30'3 6.8
2018-May-05 09:00N 54°16' W 130°36'4 7.5
2018-May-05 08:30N 54°17' W 130°42'4 8.0
2018-May-05 08:00N 54°18' W 130°48'4 8.3
2018-May-05 07:30N 54°19' W 130°55'4 7.8
2018-May-05 07:00N 54°19' W 131°02'4 7.1
2018-May-05 06:29N 54°20' W 131°08'4 7.9
2018-May-05 06:00N 54°20' W 131°15'  
2018-May-02 07:21N 54°19' W 131°08'2 6.0
2018-May-02 06:58N 54°19' W 131°04'3 6.1
2018-May-02 06:31N 54°19' W 130°59'4 7.2
2018-May-02 05:59N 54°19' W 130°53'4 7.8
2018-May-02 05:30N 54°18' W 130°47'4 7.7
2018-May-02 05:00N 54°16' W 130°41'4 7.9
2018-May-02 04:30N 54°15' W 130°34'4 7.9
2018-May-02 04:01N 54°14' W 130°28'4 7.2
2018-May-02 03:30N 54°14' W 130°22'3 0.6
2018-May-01 21:49N 54°17' W 130°21'0 0.0
2018-May-01 21:28N 54°17' W 130°21'0 0.0
2018-May-01 18:55N 54°17' W 130°21'3 6.2
2018-May-01 18:30N 54°20' W 130°19'1 2.5
2018-May-01 18:01N 54°20' W 130°17'2 3.5
2018-May-01 17:30N 54°19' W 130°20'2 3.2
2018-May-01 16:52N 54°17' W 130°21'0 0.0
2018-May-01 16:28N 54°17' W 130°21'0 0.0
2018-May-01 15:55N 54°17' W 130°21'0 0.0
2018-May-01 15:28N 54°17' W 130°21'0 0.0
2018-May-01 14:58N 54°17' W 130°21'0 0.0
2018-May-01 14:28N 54°17' W 130°21'0 0.0
2018-May-01 13:58N 54°17' W 130°21'0 0.0
2018-May-01 13:28N 54°17' W 130°21'0 0.0
2018-May-01 12:46N 54°17' W 130°21'0 0.0
2018-May-01 12:28N 54°17' W 130°21'0 0.0
2018-May-01 11:55N 54°17' W 130°21'0 0.0
2018-May-01 11:25N 54°17' W 130°21'0 0.0
2018-May-01 10:55N 54°17' W 130°21'0 0.0
2018-May-01 10:25N 54°17' W 130°21'0 0.0
2018-May-01 09:55N 54°17' W 130°21'0 0.0
2018-May-01 09:25N 54°17' W 130°21'0 0.0
2018-May-01 08:55N 54°17' W 130°21'0 0.0
2018-May-01 08:25N 54°17' W 130°21'0 0.0
2018-May-01 07:49N 54°17' W 130°21'0 0.0
2018-May-01 07:25N 54°17' W 130°21'0 0.0
2018-May-01 06:55N 54°17' W 130°21'0 0.0
2018-May-01 06:25N 54°17' W 130°21'0 0.0
2018-May-01 05:49N 54°17' W 130°21'0 0.0
2018-May-01 05:25N 54°17' W 130°21'0 0.0
2018-May-01 04:58N 54°17' W 130°21'0 0.0
2018-May-01 04:25N 54°17' W 130°21'0 0.0
2018-May-01 03:55N 54°17' W 130°21'0 0.0
2018-May-01 03:28N 54°17' W 130°21'0 0.0
2018-May-01 02:58N 54°17' W 130°21'0 0.0
2018-May-01 02:25N 54°17' W 130°21'0 0.0
2018-May-01 01:55N 54°17' W 130°21'0 0.0
2018-May-01 01:25N 54°17' W 130°21'0 0.0
2018-May-01 00:55N 54°17' W 130°21'0 0.0
2018-May-01 00:25N 54°17' W 130°21'0 0.0
2018-Apr-30 23:55N 54°17' W 130°21'0 0.0
2018-Apr-30 23:25N 54°17' W 130°21'0 0.0
2018-Apr-30 22:55N 54°17' W 130°21'0 0.0
2018-Apr-30 22:25N 54°17' W 130°21'0 0.0
2018-Apr-30 21:55N 54°17' W 130°21'0 0.0
2018-Apr-30 21:28N 54°17' W 130°21'0 0.0
2018-Apr-30 20:55N 54°17' W 130°21'0 0.0
2018-Apr-30 20:13N 54°17' W 130°21'0 0.0
2018-Apr-30 19:55N 54°17' W 130°21'0 0.0
2018-Apr-30 19:25N 54°17' W 130°21'0 0.0
2018-Apr-30 18:55N 54°17' W 130°21'0 0.0
2018-Apr-30 18:25N 54°17' W 130°21'0 0.0
2018-Apr-30 17:55N 54°17' W 130°21'0 0.0
2018-Apr-30 17:25N 54°17' W 130°21'0 0.0
2018-Apr-30 16:55N 54°17' W 130°21'0 0.0
2018-Apr-30 16:25N 54°17' W 130°21'0 0.0
2018-Apr-30 15:55N 54°17' W 130°21'0 0.0
2018-Apr-30 15:28N 54°17' W 130°21'0 0.0
2018-Apr-30 14:55N 54°17' W 130°21'0 0.0
2018-Apr-30 14:25N 54°17' W 130°21'0 0.0
2018-Apr-30 13:58N 54°17' W 130°21'0 0.0
2018-Apr-30 13:25N 54°17' W 130°21'0 0.0
2018-Apr-30 12:55N 54°17' W 130°21'0 0.0
2018-Apr-30 12:25N 54°17' W 130°21'0 0.0
2018-Apr-30 11:55N 54°17' W 130°21'0 0.0
2018-Apr-30 11:25N 54°17' W 130°21'0 0.0
2018-Apr-30 10:55N 54°17' W 130°21'0 0.0
2018-Apr-30 10:25N 54°17' W 130°21'0 0.0
2018-Apr-30 09:55N 54°17' W 130°21'0 0.0
2018-Apr-30 09:25N 54°17' W 130°21'0 0.0
2018-Apr-30 08:55N 54°17' W 130°21'0 0.0
2018-Apr-30 08:25N 54°17' W 130°21'0 0.0
2018-Apr-30 07:55N 54°17' W 130°21'  

Dump ship's entire track history